Clodine, Texas
Current Conditions -  °F | °C
As of 8:53 AM on Wednesday 22 Oct 2014 (Local Time) from KSGR Reporting Station
Clear Clear  
Wind Chill: 70°   Ceiling: Unl
Heat Index: 70°   Visibility: 7mi
Dew Point: 63°   Wind: 5mph
Humidity: 78%   Direction: 40°NE
Pressure: 30.09"   Gusts: NA
Location:  29.4892°N, 95.6914°W
Report Text: KSGR 221353Z 04004KT 7SM CLR 21/17 A3009 RMK AO2 SLP189 T02110172
Loading
Personal Weather Stations






























Interactive Weather Map
Tropical Storm Tracking
New forecast layout! Learn more

10-Day Weather Forecast

Advertisements
Track Severe Weather on mobile